createdAt,value
2018-10-07T00:00:32.357Z,64.85
2018-10-07T00:01:36.497Z,59.80
2018-10-07T00:02:40.584Z,59.80
2018-10-07T00:03:44.642Z,70.65
2018-10-07T00:04:48.736Z,73.20
2018-10-07T00:05:52.906Z,70.30
2018-10-07T00:06:57.036Z,67.60
2018-10-07T00:08:01.189Z,69.65
2018-10-07T00:09:06.731Z,74.62
2018-10-07T00:10:12.380Z,77.85
2018-10-07T00:11:16.565Z,72.12
2018-10-07T00:12:20.644Z,69.07
2018-10-07T00:13:24.671Z,73.57
2018-10-07T00:14:28.856Z,70.75
2018-10-07T00:15:33.473Z,78.22
2018-10-07T00:16:37.857Z,77.15
2018-10-07T00:17:42.054Z,76.40
2018-10-07T00:18:46.197Z,73.60
2018-10-07T00:19:50.252Z,77.32
2018-10-07T00:20:54.305Z,77.95
2018-10-07T00:21:58.538Z,68.42
2018-10-07T00:23:02.821Z,72.37
2018-10-07T00:24:06.862Z,68.55
2018-10-07T00:25:11.596Z,69.77
2018-10-07T00:26:15.763Z,67.62
2018-10-07T00:27:19.786Z,69.77
2018-10-07T00:28:23.992Z,62.62
2018-10-07T00:29:28.092Z,68.57
2018-10-07T00:30:32.472Z,66.85
2018-10-07T00:31:41.915Z,60.40
2018-10-07T00:32:45.998Z,65.05
2018-10-07T00:33:50.067Z,66.87
2018-10-07T00:34:54.175Z,63.40
2018-10-07T00:35:58.284Z,67.90
2018-10-07T00:37:02.380Z,66.37
2018-10-07T00:38:06.478Z,76.77
2018-10-07T00:39:11.491Z,72.92
2018-10-07T00:40:15.584Z,84.97
2018-10-07T00:41:19.676Z,69.10
2018-10-07T00:42:23.809Z,70.30
2018-10-07T00:43:27.880Z,81.12
2018-10-07T00:44:32.204Z,76.77
2018-10-07T00:45:36.251Z,77.82
2018-10-07T00:46:40.330Z,80.95
2018-10-07T00:47:44.375Z,85.03
2018-10-07T00:48:48.532Z,79.25
2018-10-07T00:49:52.914Z,77.65
2018-10-07T00:50:57.052Z,81.30
2018-10-07T00:52:01.191Z,93.12
2018-10-07T00:53:05.345Z,85.32
2018-10-07T00:54:09.417Z,81.47
2018-10-07T00:55:13.861Z,77.95
2018-10-07T00:56:18.052Z,88.52
2018-10-07T00:57:22.596Z,87.40
2018-10-07T00:58:26.727Z,101.05
2018-10-07T00:59:30.771Z,88.10
2018-10-07T01:00:34.876Z,84.30
2018-10-07T01:01:39.286Z,95.87
2018-10-07T01:02:43.435Z,86.12
2018-10-07T01:03:47.622Z,97.80
2018-10-07T01:04:52.063Z,96.97
2018-10-07T01:05:56.186Z,81.67
2018-10-07T01:07:00.362Z,89.00
2018-10-07T01:08:04.413Z,94.32
2018-10-07T01:09:10.040Z,85.40
2018-10-07T01:10:14.093Z,88.30
2018-10-07T01:11:18.147Z,84.77
2018-10-07T01:12:22.347Z,81.60
2018-10-07T01:13:26.403Z,84.80
2018-10-07T01:14:30.460Z,85.47
2018-10-07T01:15:34.805Z,86.90
2018-10-07T01:16:38.944Z,81.35
2018-10-07T01:17:43.159Z,87.33
2018-10-07T01:18:47.198Z,75.10
2018-10-07T01:19:51.341Z,86.75
2018-10-07T01:20:55.465Z,88.87
2018-10-07T01:21:59.584Z,88.37
2018-10-07T01:23:03.769Z,84.30
2018-10-07T01:24:08.618Z,87.97
2018-10-07T01:25:12.696Z,83.75
2018-10-07T01:26:16.944Z,81.10
2018-10-07T01:27:21.855Z,95.70
2018-10-07T01:28:26.017Z,85.95
2018-10-07T01:29:30.299Z,90.83
2018-10-07T01:30:34.349Z,94.25
2018-10-07T01:31:38.472Z,99.70
2018-10-07T01:32:42.601Z,88.25
2018-10-07T01:33:46.806Z,86.00
2018-10-07T01:34:51.001Z,96.20
2018-10-07T01:35:55.104Z,90.97
2018-10-07T01:36:59.338Z,99.58
2018-10-07T01:38:03.466Z,111.28
2018-10-07T01:39:09.432Z,94.30
2018-10-07T01:40:13.605Z,100.85
2018-10-07T01:41:17.968Z,102.85
2018-10-07T01:42:21.996Z,111.30
2018-10-07T01:43:26.242Z,123.53
2018-10-07T01:44:30.400Z,117.93
2018-10-07T01:45:34.524Z,107.80
2018-10-07T01:46:38.610Z,113.85
2018-10-07T01:47:43.060Z,126.72
2018-10-07T01:48:47.230Z,111.68
2018-10-07T01:49:51.331Z,119.47
2018-10-07T01:50:55.527Z,128.18
2018-10-07T01:51:59.648Z,119.77
2018-10-07T01:53:03.824Z,128.00
2018-10-07T01:54:07.929Z,134.52
2018-10-07T01:55:11.987Z,129.20
2018-10-07T01:56:16.227Z,133.52
2018-10-07T01:57:20.424Z,135.15
2018-10-07T01:58:24.515Z,126.15
2018-10-07T01:59:28.734Z,142.98
2018-10-07T02:00:32.855Z,127.50
2018-10-07T02:01:36.987Z,122.62
2018-10-07T02:02:41.047Z,134.72
2018-10-07T02:03:45.167Z,142.98
2018-10-07T02:04:49.415Z,144.60
2018-10-07T02:05:53.744Z,154.18
2018-10-07T02:06:57.759Z,153.05
2018-10-07T02:08:01.870Z,150.20
2018-10-07T02:09:08.044Z,157.18
2018-10-07T02:10:12.279Z,140.32
2018-10-07T02:11:16.376Z,140.25
2018-10-07T02:12:20.605Z,151.00
2018-10-07T02:13:24.861Z,149.42
2018-10-07T02:14:28.949Z,149.12
2018-10-07T02:15:33.124Z,150.15
2018-10-07T02:16:37.315Z,166.22
2018-10-07T02:17:41.469Z,147.62
2018-10-07T02:18:45.622Z,140.37
2018-10-07T02:19:49.949Z,146.68
2018-10-07T02:20:54.209Z,149.20
2018-10-07T02:21:58.338Z,143.52
2018-10-07T02:23:02.419Z,145.60
2018-10-07T02:24:06.548Z,143.52
2018-10-07T02:25:10.627Z,160.65
2018-10-07T02:26:14.948Z,152.68
2018-10-07T02:27:19.024Z,151.87
2018-10-07T02:28:23.154Z,152.35
2018-10-07T02:29:27.300Z,148.47
2018-10-07T02:30:31.501Z,147.95
2018-10-07T02:31:36.443Z,154.95
2018-10-07T02:32:40.500Z,145.90
2018-10-07T02:33:44.581Z,151.93
2018-10-07T02:34:48.643Z,152.87
2018-10-07T02:35:52.796Z,152.27
2018-10-07T02:36:56.912Z,155.43
2018-10-07T02:38:01.226Z,166.40
2018-10-07T02:39:07.267Z,147.40
2018-10-07T02:40:11.424Z,154.82
2018-10-07T02:41:15.566Z,158.20
2018-10-07T02:42:19.667Z,147.68
2018-10-07T02:43:23.968Z,150.87
2018-10-07T02:44:28.038Z,162.30
2018-10-07T02:45:32.231Z,149.32
2018-10-07T02:46:36.316Z,146.22
2018-10-07T02:47:40.608Z,139.82
2018-10-07T02:48:44.700Z,149.72
2018-10-07T02:49:48.760Z,151.95
2018-10-07T02:50:52.864Z,133.37
2018-10-07T02:51:57.174Z,148.32
2018-10-07T02:53:01.476Z,148.85
2018-10-07T02:54:06.008Z,139.62
2018-10-07T02:55:10.180Z,157.55
2018-10-07T02:56:14.371Z,133.65
2018-10-07T02:57:18.646Z,144.20
2018-10-07T02:58:23.418Z,139.20
2018-10-07T02:59:27.710Z,145.35
2018-10-07T03:00:31.859Z,144.55
2018-10-07T03:01:35.992Z,142.98
2018-10-07T03:02:40.120Z,151.50
2018-10-07T03:03:44.189Z,139.62
2018-10-07T03:04:48.451Z,140.85
2018-10-07T03:05:52.540Z,136.47
2018-10-07T03:06:56.888Z,138.25
2018-10-07T03:08:01.339Z,145.47
2018-10-07T03:09:07.053Z,141.43
2018-10-07T03:10:11.512Z,136.03
2018-10-07T03:11:15.893Z,135.55
2018-10-07T03:12:20.009Z,134.07
2018-10-07T03:13:24.266Z,132.87
2018-10-07T03:14:28.385Z,129.30
2018-10-07T03:15:32.745Z,133.47
2018-10-07T03:16:36.900Z,100.40
2018-10-07T03:17:40.916Z,106.17
2018-10-07T03:18:45.072Z,118.08
2018-10-07T03:19:49.115Z,130.55
2018-10-07T03:20:53.193Z,131.78
2018-10-07T03:21:57.224Z,118.97
2018-10-07T03:23:01.244Z,127.72
2018-10-07T03:24:05.371Z,135.28
2018-10-07T03:25:09.966Z,118.75
2018-10-07T03:26:14.085Z,131.27
2018-10-07T03:27:18.364Z,124.30
2018-10-07T03:28:22.434Z,133.12
2018-10-07T03:29:26.516Z,124.30
2018-10-07T03:30:30.672Z,108.22
2018-10-07T03:31:34.705Z,107.75
2018-10-07T03:32:38.871Z,109.78
2018-10-07T03:33:42.959Z,101.53
2018-10-07T03:34:47.023Z,108.47
2018-10-07T03:35:51.168Z,103.87
2018-10-07T03:36:55.220Z,111.00
2018-10-07T03:37:59.412Z,107.87
2018-10-07T03:39:05.308Z,70.92
2018-10-07T03:40:09.350Z,93.40
2018-10-07T03:41:13.487Z,82.02
2018-10-07T03:42:17.545Z,80.38
2018-10-07T03:43:21.649Z,85.90
2018-10-07T03:44:25.715Z,66.12
2018-10-07T03:45:29.769Z,78.72
2018-10-07T03:46:33.908Z,56.28
2018-10-07T03:47:37.976Z,61.73
2018-10-07T03:48:42.161Z,48.00
2018-10-07T03:49:46.358Z,41.80
2018-10-07T03:50:50.491Z,49.38
2018-10-07T03:51:54.874Z,43.45
2018-10-07T03:52:58.959Z,41.42
2018-10-07T03:54:03.060Z,30.05
2018-10-07T03:55:07.156Z,28.77
2018-10-07T03:56:11.225Z,31.77
2018-10-07T03:57:15.382Z,24.27
2018-10-07T03:58:19.622Z,26.87
2018-10-07T03:59:24.119Z,25.60
2018-10-07T04:00:28.197Z,27.35
2018-10-07T04:01:32.418Z,24.92
2018-10-07T04:02:36.540Z,21.65
2018-10-07T04:03:40.598Z,32.58
2018-10-07T04:04:44.726Z,29.18
2018-10-07T04:05:48.815Z,33.53
2018-10-07T04:06:52.897Z,23.87
2018-10-07T04:07:57.124Z,38.42
2018-10-07T04:09:01.203Z,26.55
2018-10-07T04:10:05.376Z,26.70
2018-10-07T04:11:09.461Z,26.80
2018-10-07T04:12:13.613Z,26.45
2018-10-07T04:13:18.002Z,24.72
2018-10-07T04:14:22.160Z,20.40
2018-10-07T04:15:26.294Z,24.10
2018-10-07T04:16:30.506Z,25.88
2018-10-07T04:17:34.983Z,21.12
2018-10-07T04:18:39.123Z,27.15
2018-10-07T04:19:43.309Z,29.15
2018-10-07T04:20:47.411Z,31.17
2018-10-07T04:21:57.629Z,26.27
2018-10-07T04:23:01.726Z,23.65
2018-10-07T04:24:05.923Z,25.08
2018-10-07T04:25:10.016Z,29.40
2018-10-07T04:26:14.072Z,28.65
2018-10-07T04:27:18.175Z,26.62
2018-10-07T04:28:22.279Z,28.47
2018-10-07T04:29:26.582Z,28.65
2018-10-07T04:30:30.659Z,25.15
2018-10-07T04:31:34.837Z,23.95
2018-10-07T04:32:38.932Z,20.70
2018-10-07T04:33:42.997Z,24.35
2018-10-07T04:34:47.312Z,25.85
2018-10-07T04:35:51.371Z,24.07
2018-10-07T04:36:55.738Z,24.80
2018-10-07T04:38:00.163Z,20.97
2018-10-07T04:39:05.290Z,28.15
2018-10-07T04:40:09.374Z,29.10
2018-10-07T04:41:13.434Z,30.27
2018-10-07T04:42:17.444Z,25.65
2018-10-07T04:43:21.536Z,25.43
2018-10-07T04:44:25.737Z,25.08
2018-10-07T04:45:29.819Z,26.55
2018-10-07T04:46:34.132Z,27.27
2018-10-07T04:47:38.586Z,29.23
2018-10-07T04:48:42.698Z,32.50
2018-10-07T04:49:46.801Z,21.07
2018-10-07T04:50:50.940Z,22.13
2018-10-07T04:51:54.985Z,32.45
2018-10-07T04:52:59.125Z,27.65
2018-10-07T04:54:03.587Z,22.10
2018-10-07T04:55:07.724Z,27.77
2018-10-07T04:56:11.768Z,21.40
2018-10-07T04:57:15.826Z,23.60
2018-10-07T04:58:19.952Z,26.30
2018-10-07T04:59:24.044Z,25.55
2018-10-07T05:00:28.158Z,26.25
2018-10-07T05:01:32.260Z,30.02
2018-10-07T05:02:36.387Z,26.77
2018-10-07T05:03:40.618Z,26.70
2018-10-07T05:04:44.815Z,29.35
2018-10-07T05:05:49.416Z,22.58
2018-10-07T05:06:53.661Z,36.00
2018-10-07T05:07:57.804Z,24.37
2018-10-07T05:09:03.061Z,28.00
2018-10-07T05:10:18.446Z,30.35
2018-10-07T05:11:22.597Z,35.58
2018-10-07T05:12:26.796Z,33.73
2018-10-07T05:13:35.814Z,33.20
2018-10-07T05:14:39.976Z,36.30
2018-10-07T05:15:44.649Z,34.35
2018-10-07T05:16:49.767Z,29.30
2018-10-07T05:17:53.936Z,26.20
2018-10-07T05:18:58.376Z,27.22
2018-10-07T05:20:02.496Z,31.65
2018-10-07T05:21:06.568Z,31.02
2018-10-07T05:22:11.230Z,33.50
2018-10-07T05:23:15.533Z,27.73
2018-10-07T05:24:19.799Z,35.00
2018-10-07T05:25:23.866Z,38.23
2018-10-07T05:26:28.574Z,36.23
2018-10-07T05:27:32.746Z,41.53
2018-10-07T05:28:37.076Z,37.70
2018-10-07T05:29:41.182Z,33.83
2018-10-07T05:30:45.222Z,27.55
2018-10-07T05:31:49.452Z,28.35
2018-10-07T05:32:53.549Z,30.32
2018-10-07T05:33:57.618Z,24.47
2018-10-07T05:35:01.738Z,25.92
2018-10-07T05:36:05.961Z,33.38
2018-10-07T05:37:10.076Z,30.48
2018-10-07T05:38:14.192Z,27.60
2018-10-07T05:39:18.474Z,28.23
2018-10-07T05:40:22.556Z,26.37
2018-10-07T05:41:28.042Z,23.77
2018-10-07T05:42:32.190Z,28.75
2018-10-07T05:43:36.368Z,25.35
2018-10-07T05:44:40.573Z,34.70
2018-10-07T05:45:44.568Z,19.02
2018-10-07T05:46:48.647Z,27.22
2018-10-07T05:47:53.371Z,27.07
2018-10-07T05:48:57.534Z,23.32
2018-10-07T05:50:01.676Z,25.05
2018-10-07T05:51:05.779Z,20.70
2018-10-07T05:52:09.913Z,21.95
2018-10-07T05:53:14.052Z,14.65
2018-10-07T05:54:18.178Z,19.73
2018-10-07T05:55:22.544Z,24.00
2018-10-07T05:56:26.637Z,20.62
2018-10-07T05:57:30.728Z,17.15
2018-10-07T05:58:35.176Z,15.28
2018-10-07T05:59:43.427Z,18.62
2018-10-07T06:00:47.508Z,22.13
2018-10-07T06:01:51.873Z,19.27
2018-10-07T06:03:02.240Z,17.82
2018-10-07T06:04:22.987Z,16.02
2018-10-07T06:05:27.194Z,14.63
2018-10-07T06:06:31.364Z,13.70
2018-10-07T06:07:35.486Z,18.82
2018-10-07T06:08:41.261Z,13.00
2018-10-07T06:09:45.629Z,13.28
2018-10-07T06:10:49.732Z,16.97
2018-10-07T06:11:54.580Z,14.47
2018-10-07T06:12:58.661Z,12.70
2018-10-07T06:14:02.816Z,11.33
2018-10-07T06:15:22.791Z,18.77
2018-10-07T06:16:26.851Z,11.45
2018-10-07T06:17:30.996Z,11.55
2018-10-07T06:18:35.111Z,11.08
2018-10-07T06:19:39.195Z,8.63
2018-10-07T06:20:43.279Z,9.78
2018-10-07T06:21:47.668Z,9.10
2018-10-07T06:22:51.774Z,6.45
2018-10-07T06:23:55.919Z,12.55
2018-10-07T06:25:00.199Z,11.20
2018-10-07T06:26:04.289Z,8.75
2018-10-07T06:27:08.329Z,9.28
2018-10-07T06:28:12.472Z,9.03
2018-10-07T06:29:16.700Z,6.10
2018-10-07T06:30:21.032Z,8.68
2018-10-07T06:31:25.120Z,5.30
2018-10-07T06:32:29.260Z,3.35
2018-10-07T06:33:33.424Z,4.80
2018-10-07T06:34:37.580Z,12.40
2018-10-07T06:35:41.748Z,6.17
2018-10-07T06:36:45.917Z,6.78
2018-10-07T06:37:49.999Z,5.92
2018-10-07T06:38:54.096Z,3.83
2018-10-07T06:39:58.328Z,6.55
2018-10-07T06:41:02.443Z,6.17
2018-10-07T06:42:06.852Z,6.35
2018-10-07T06:43:10.964Z,4.30
2018-10-07T06:44:15.267Z,3.70
2018-10-07T06:45:19.804Z,2.55
2018-10-07T06:46:24.048Z,4.10
2018-10-07T06:47:28.155Z,3.45
2018-10-07T06:48:32.255Z,5.25
2018-10-07T06:49:36.364Z,3.22
2018-10-07T06:50:40.563Z,3.67
2018-10-07T06:51:44.678Z,4.87
2018-10-07T06:52:48.723Z,2.90
2018-10-07T06:53:52.980Z,4.97
2018-10-07T06:55:01.598Z,6.08
2018-10-07T06:56:05.750Z,5.55
2018-10-07T06:57:09.947Z,2.20
2018-10-07T06:58:14.082Z,3.40
2018-10-07T06:59:18.577Z,12.58
2018-10-07T07:00:22.620Z,3.62
2018-10-07T07:01:26.772Z,8.85
2018-10-07T07:02:30.936Z,3.35
2018-10-07T07:03:34.964Z,4.62
2018-10-07T07:04:39.037Z,4.40
2018-10-07T07:05:43.232Z,5.08
2018-10-07T07:06:47.388Z,3.95
2018-10-07T07:07:51.372Z,7.22
2018-10-07T07:08:55.623Z,3.87
2018-10-07T07:09:59.679Z,4.05
2018-10-07T07:11:04.360Z,5.35
2018-10-07T07:12:08.653Z,4.37
2018-10-07T07:13:12.725Z,4.45
2018-10-07T07:14:18.963Z,5.92
2018-10-07T07:15:23.049Z,4.72
2018-10-07T07:16:27.270Z,7.90
2018-10-07T07:17:31.308Z,4.22
2018-10-07T07:18:35.393Z,4.55
2018-10-07T07:19:39.788Z,5.45
2018-10-07T07:20:43.800Z,4.08
2018-10-07T07:21:47.920Z,8.63
2018-10-07T07:22:52.327Z,5.72
2018-10-07T07:24:03.189Z,5.40
2018-10-07T07:25:07.308Z,6.05
2018-10-07T07:26:11.465Z,6.47
2018-10-07T07:27:15.706Z,7.25
2018-10-07T07:28:20.247Z,6.62
2018-10-07T07:29:24.494Z,3.77
2018-10-07T07:30:28.724Z,3.30
2018-10-07T07:31:33.014Z,5.22
2018-10-07T07:32:37.036Z,2.42
2018-10-07T07:33:41.360Z,4.30
2018-10-07T07:38:09.005Z,10.98
2018-10-07T07:39:12.989Z,6.90
2018-10-07T07:40:16.972Z,7.60
2018-10-07T07:41:20.947Z,4.65
2018-10-07T07:42:24.984Z,6.05
2018-10-07T07:43:29.004Z,5.92
2018-10-07T07:44:33.298Z,3.77
2018-10-07T07:45:47.380Z,2.85
2018-10-07T07:46:51.416Z,9.38
2018-10-07T07:47:55.426Z,6.35
2018-10-07T07:48:59.429Z,4.60
2018-10-07T07:50:03.421Z,5.47
2018-10-07T07:51:07.467Z,4.28
2018-10-07T07:52:17.312Z,9.00
2018-10-07T07:53:21.284Z,9.48
2018-10-07T07:54:25.309Z,6.30
2018-10-07T07:55:29.362Z,5.65
2018-10-07T07:56:33.367Z,7.10
2018-10-07T07:57:37.340Z,8.98
2018-10-07T07:58:41.372Z,5.62
2018-10-07T07:59:45.617Z,4.95
2018-10-07T08:00:49.592Z,8.13
2018-10-07T08:01:55.926Z,5.00
2018-10-07T08:02:59.951Z,6.17
2018-10-07T08:04:04.214Z,7.50
2018-10-07T08:05:08.275Z,7.53
2018-10-07T08:06:12.334Z,7.03
2018-10-07T08:07:16.361Z,7.10
2018-10-07T08:08:20.401Z,4.78
2018-10-07T08:09:24.454Z,6.28
2018-10-07T08:10:28.468Z,8.75
2018-10-07T08:11:32.539Z,5.08
2018-10-07T08:12:36.812Z,5.95
2018-10-07T08:13:40.869Z,3.85
2018-10-07T08:14:44.821Z,6.10
2018-10-07T08:15:48.876Z,7.55
2018-10-07T08:16:52.880Z,14.07
2018-10-07T08:17:56.959Z,6.60
2018-10-07T08:19:00.967Z,6.83
2018-10-07T08:20:04.935Z,9.05
2018-10-07T08:21:08.953Z,5.80
2018-10-07T08:22:13.048Z,5.78
2018-10-07T08:23:17.128Z,6.50
2018-10-07T08:24:21.080Z,7.00
2018-10-07T08:25:25.139Z,4.75
2018-10-07T08:26:29.137Z,6.90
2018-10-07T08:27:33.125Z,7.33
2018-10-07T08:28:37.111Z,6.85
2018-10-07T08:29:41.141Z,11.28
2018-10-07T08:30:45.227Z,6.45
2018-10-07T08:31:49.257Z,5.30
2018-10-07T08:32:53.350Z,6.70
2018-10-07T08:33:57.408Z,7.28
2018-10-07T08:35:01.529Z,5.97
2018-10-07T08:36:05.518Z,7.75
2018-10-07T08:37:10.001Z,6.25
2018-10-07T08:38:14.307Z,8.33
2018-10-07T08:39:18.413Z,3.83
2018-10-07T08:40:22.804Z,3.05
2018-10-07T08:41:26.857Z,5.92
2018-10-07T08:42:30.997Z,4.58
2018-10-07T08:46:51.096Z,7.95
2018-10-07T08:47:55.175Z,5.30
2018-10-07T08:49:01.566Z,4.30
2018-10-07T08:50:05.593Z,5.47
2018-10-07T08:51:09.660Z,4.80
2018-10-07T08:52:14.003Z,4.83
2018-10-07T08:53:18.096Z,5.87
2018-10-07T08:54:22.226Z,5.45
2018-10-07T08:55:26.395Z,3.83
2018-10-07T08:56:30.623Z,8.28
2018-10-07T08:57:34.625Z,6.80
2018-10-07T08:58:38.686Z,7.03
2018-10-07T08:59:42.785Z,7.60
2018-10-07T09:00:47.114Z,8.10
2018-10-07T09:01:51.399Z,3.90
2018-10-07T09:02:58.352Z,4.55
2018-10-07T09:04:02.409Z,8.30
2018-10-07T09:05:06.515Z,4.83
2018-10-07T09:06:10.586Z,6.05
2018-10-07T09:07:14.779Z,6.58
2018-10-07T09:08:18.823Z,5.35
2018-10-07T09:09:22.878Z,6.10
2018-10-07T09:10:26.915Z,5.42
2018-10-07T09:11:31.081Z,6.12
2018-10-07T09:12:35.268Z,2.87
2018-10-07T09:13:39.831Z,7.25
2018-10-07T09:14:44.202Z,5.08
2018-10-07T09:15:48.259Z,4.97
2018-10-07T09:16:52.355Z,6.45
2018-10-07T09:17:56.544Z,7.87
2018-10-07T09:19:00.744Z,6.90
2018-10-07T09:20:05.323Z,3.30
2018-10-07T09:21:09.522Z,8.08
2018-10-07T09:22:13.631Z,5.75
2018-10-07T09:23:17.681Z,4.50
2018-10-07T09:24:21.695Z,4.67
2018-10-07T09:25:25.818Z,3.47
2018-10-07T09:26:30.004Z,6.90
2018-10-07T09:27:34.272Z,6.72
2018-10-07T09:28:38.339Z,7.10
2018-10-07T09:29:42.465Z,3.90
2018-10-07T09:30:46.609Z,5.60
2018-10-07T09:31:50.702Z,18.35
2018-10-07T09:32:54.889Z,6.62
2018-10-07T09:33:59.051Z,5.50
2018-10-07T09:35:04.422Z,3.08
2018-10-07T09:36:08.516Z,4.50
2018-10-07T09:37:12.543Z,3.85
2018-10-07T09:38:16.709Z,7.58
2018-10-07T09:39:20.853Z,9.83
2018-10-07T09:40:24.864Z,4.40
2018-10-07T09:41:28.978Z,2.98
2018-10-07T09:42:33.060Z,3.20
2018-10-07T09:43:37.120Z,8.10
2018-10-07T09:44:41.211Z,6.37
2018-10-07T09:45:45.274Z,5.60
2018-10-07T09:46:49.396Z,3.33
2018-10-07T09:47:53.527Z,6.45
2018-10-07T09:48:58.092Z,3.87
2018-10-07T09:50:02.175Z,6.92
2018-10-07T09:51:06.377Z,4.97
2018-10-07T09:52:10.542Z,5.17
2018-10-07T09:53:14.624Z,5.40
2018-10-07T09:54:18.651Z,3.85
2018-10-07T09:55:22.754Z,3.17
2018-10-07T09:56:26.954Z,5.85
2018-10-07T09:57:31.140Z,3.67
2018-10-07T09:58:35.190Z,14.00
2018-10-07T09:59:39.237Z,3.05
2018-10-07T10:00:43.276Z,9.78
2018-10-07T10:01:47.511Z,5.03
2018-10-07T10:02:51.567Z,4.50
2018-10-07T10:03:55.763Z,4.17
2018-10-07T10:04:59.725Z,3.50
2018-10-07T10:06:03.874Z,3.47
2018-10-07T10:07:07.964Z,3.00
2018-10-07T10:08:12.169Z,6.37
2018-10-07T10:09:16.325Z,2.60
2018-10-07T10:10:20.407Z,3.80
2018-10-07T10:11:24.662Z,4.05
2018-10-07T10:12:28.550Z,3.58
2018-10-07T10:13:32.703Z,3.83
2018-10-07T10:14:36.800Z,8.63
2018-10-07T10:15:40.928Z,3.60
2018-10-07T10:16:52.682Z,2.92
2018-10-07T10:18:03.539Z,3.60
2018-10-07T10:19:11.166Z,4.05
2018-10-07T10:20:17.727Z,5.28
2018-10-07T10:21:49.217Z,8.13
2018-10-07T10:23:10.710Z,5.45
2018-10-07T10:24:35.045Z,4.35
2018-10-07T10:25:57.297Z,3.52
2018-10-07T10:28:07.456Z,2.87
2018-10-07T10:29:19.587Z,8.23
2018-10-07T10:30:35.877Z,7.30
2018-10-07T10:31:53.355Z,5.90
2018-10-07T10:33:06.378Z,2.70
2018-10-07T10:34:17.845Z,2.40
2018-10-07T10:35:36.355Z,3.10
2018-10-07T10:36:44.088Z,2.70
2018-10-07T10:39:15.275Z,2.92
2018-10-07T10:40:26.066Z,3.60
2018-10-07T10:41:42.333Z,1.57
2018-10-07T10:42:48.436Z,3.02
2018-10-07T10:44:03.129Z,2.35
2018-10-07T10:45:07.583Z,2.02
2018-10-07T10:46:57.817Z,1.85
2018-10-07T10:48:23.368Z,2.33
2018-10-07T10:49:35.673Z,2.55
2018-10-07T10:50:46.559Z,8.50
2018-10-07T10:53:00.975Z,4.45
2018-10-07T10:54:09.561Z,3.95
2018-10-07T10:55:22.454Z,9.18
2018-10-07T10:56:29.742Z,3.17
2018-10-07T10:57:54.057Z,2.65
2018-10-07T11:00:05.512Z,3.90
2018-10-07T11:01:27.856Z,1.82
2018-10-07T11:03:42.218Z,4.80
2018-10-07T11:04:54.364Z,1.80
2018-10-07T11:06:04.086Z,1.60
2018-10-07T11:07:28.235Z,1.90
2018-10-07T11:08:51.702Z,6.53
2018-10-07T11:10:01.638Z,2.42
2018-10-07T11:11:14.157Z,2.72
2018-10-07T11:13:31.534Z,6.95
2018-10-07T11:15:13.283Z,5.05
2018-10-07T11:16:27.653Z,2.37
2018-10-07T11:17:39.183Z,2.27
2018-10-07T11:19:00.872Z,2.05
2018-10-07T11:20:19.747Z,2.27
2018-10-07T11:21:44.353Z,2.33
2018-10-07T11:24:00.295Z,1.62
2018-10-07T11:25:17.336Z,1.52
2018-10-07T11:26:37.212Z,1.60
2018-10-07T11:27:56.424Z,4.12
2018-10-07T11:29:08.095Z,3.05
2018-10-07T11:30:26.712Z,1.50
2018-10-07T11:31:37.587Z,3.83
2018-10-07T11:32:53.911Z,3.40
2018-10-07T11:34:09.458Z,1.20
2018-10-07T11:35:20.831Z,2.30
2018-10-07T11:37:42.954Z,4.10
2018-10-07T11:39:02.788Z,1.77
2018-10-07T11:40:19.729Z,1.82
2018-10-07T11:41:31.210Z,4.10
2018-10-07T11:42:43.651Z,2.50
2018-10-07T11:43:55.704Z,1.92
2018-10-07T11:45:08.293Z,1.82
2018-10-07T11:46:28.340Z,1.50
2018-10-07T11:49:50.690Z,3.40
2018-10-07T11:53:15.616Z,3.47
2018-10-07T11:54:25.750Z,5.33
2018-10-07T11:55:30.424Z,2.80
2018-10-07T11:56:35.925Z,1.87
2018-10-07T11:57:39.976Z,1.50
2018-10-07T11:58:44.028Z,1.10
2018-10-07T11:59:48.102Z,1.80
2018-10-07T12:00:52.074Z,3.58
2018-10-07T12:01:56.123Z,4.17
2018-10-07T12:03:00.416Z,1.52
2018-10-07T12:04:04.502Z,2.25
2018-10-07T12:05:08.534Z,2.12
2018-10-07T12:06:12.549Z,3.30
2018-10-07T12:07:16.911Z,3.55
2018-10-07T12:08:21.059Z,1.40
2018-10-07T12:09:25.177Z,1.52
2018-10-07T12:10:29.140Z,2.05
2018-10-07T12:11:33.219Z,2.37
2018-10-07T12:12:37.231Z,2.25
2018-10-07T12:13:41.218Z,4.75
2018-10-07T12:14:45.839Z,2.87
2018-10-07T12:15:49.867Z,5.50
2018-10-07T12:16:53.949Z,4.25
2018-10-07T12:17:58.856Z,3.67
2018-10-07T12:19:02.905Z,1.82
2018-10-07T12:20:06.898Z,3.02
2018-10-07T12:21:11.012Z,3.00
2018-10-07T12:22:15.037Z,1.85
2018-10-07T12:23:19.134Z,2.45
2018-10-07T12:24:23.169Z,2.35
2018-10-07T12:25:27.194Z,3.17
2018-10-07T12:26:31.236Z,4.83
2018-10-07T12:27:35.237Z,3.22
2018-10-07T12:28:39.416Z,2.02
2018-10-07T12:29:43.483Z,1.72
2018-10-07T12:30:47.503Z,1.42
2018-10-07T12:31:51.824Z,2.58
2018-10-07T12:32:55.792Z,1.87
2018-10-07T12:33:59.835Z,2.87
2018-10-07T12:35:03.856Z,1.25
2018-10-07T12:36:08.863Z,2.08
2018-10-07T12:37:13.564Z,4.08
2018-10-07T12:38:17.524Z,2.50
2018-10-07T12:39:21.656Z,2.90
2018-10-07T12:40:25.909Z,1.85
2018-10-07T12:41:29.924Z,2.67
2018-10-07T12:42:33.945Z,1.57
2018-10-07T12:43:38.030Z,1.82
2018-10-07T12:44:42.035Z,1.95
2018-10-07T12:45:46.119Z,2.75
2018-10-07T12:46:50.196Z,2.58
2018-10-07T12:47:54.396Z,2.25
2018-10-07T12:48:58.463Z,2.40
2018-10-07T12:50:02.499Z,2.58
2018-10-07T12:51:07.018Z,3.58
2018-10-07T12:52:11.036Z,2.33
2018-10-07T12:53:15.192Z,1.55
2018-10-07T12:54:19.417Z,1.60
2018-10-07T12:55:23.423Z,2.00
2018-10-07T12:56:27.513Z,1.50
2018-10-07T12:57:31.642Z,3.67
2018-10-07T12:58:35.742Z,1.30
2018-10-07T12:59:39.791Z,2.65
2018-10-07T13:00:43.787Z,2.05
2018-10-07T13:01:47.853Z,2.17
2018-10-07T13:02:51.936Z,1.85
2018-10-07T13:03:56.273Z,3.20
2018-10-07T13:05:00.367Z,1.80
2018-10-07T13:06:04.508Z,4.30
2018-10-07T13:07:08.648Z,1.50
2018-10-07T13:08:12.763Z,1.62
2018-10-07T13:09:16.865Z,5.30
2018-10-07T13:10:21.009Z,3.30
2018-10-07T13:11:25.127Z,1.45
2018-10-07T13:12:29.162Z,2.00
2018-10-07T13:13:33.272Z,2.37
2018-10-07T13:14:37.304Z,1.47
2018-10-07T13:15:41.369Z,1.42
2018-10-07T13:16:45.447Z,2.40
2018-10-07T13:17:49.566Z,1.87
2018-10-07T13:18:53.713Z,3.27
2018-10-07T13:19:57.806Z,3.08
2018-10-07T13:21:01.973Z,1.90
2018-10-07T13:22:06.055Z,2.25
2018-10-07T13:23:10.227Z,2.37
2018-10-07T13:24:14.212Z,1.55
2018-10-07T13:25:18.204Z,2.85
2018-10-07T13:26:22.288Z,1.50
2018-10-07T13:27:26.373Z,6.05
2018-10-07T13:28:30.432Z,2.55
2018-10-07T13:29:34.476Z,1.40
2018-10-07T13:30:38.568Z,2.60
2018-10-07T13:31:42.624Z,1.95
2018-10-07T13:32:46.650Z,1.90
2018-10-07T13:33:51.557Z,1.20
2018-10-07T13:34:55.696Z,1.80
2018-10-07T13:36:00.329Z,1.45
2018-10-07T13:37:04.968Z,4.22
2018-10-07T13:38:09.122Z,1.75
2018-10-07T13:39:13.604Z,4.75
2018-10-07T13:40:22.085Z,2.40
2018-10-07T13:41:26.081Z,2.77
2018-10-07T13:42:30.074Z,3.10
2018-10-07T13:43:34.131Z,1.47
2018-10-07T13:44:38.267Z,1.70
2018-10-07T13:45:42.350Z,4.25
2018-10-07T13:46:46.363Z,6.97
2018-10-07T13:47:50.391Z,2.25
2018-10-07T13:48:54.481Z,3.80
2018-10-07T13:49:58.644Z,2.40
2018-10-07T13:51:02.771Z,1.72
2018-10-07T13:52:06.943Z,2.40
2018-10-07T13:53:11.071Z,2.77
2018-10-07T13:54:15.083Z,1.40
2018-10-07T13:55:19.147Z,1.47
2018-10-07T13:56:23.204Z,1.30
2018-10-07T13:57:30.411Z,2.02
2018-10-07T13:58:38.821Z,1.95
2018-10-07T13:59:42.856Z,3.00
2018-10-07T14:00:46.900Z,3.83
2018-10-07T14:01:53.828Z,5.80
2018-10-07T14:02:57.847Z,3.40
2018-10-07T14:04:02.241Z,3.05
2018-10-07T14:05:06.175Z,2.55
2018-10-07T14:06:10.267Z,2.27
2018-10-07T14:07:14.430Z,1.98
2018-10-07T14:08:18.921Z,2.30
2018-10-07T14:09:22.988Z,4.70
2018-10-07T14:10:28.510Z,1.50
2018-10-07T14:11:32.627Z,3.72
2018-10-07T14:12:36.659Z,2.20
2018-10-07T14:13:40.797Z,5.35
2018-10-07T14:14:44.792Z,2.60
2018-10-07T14:15:48.919Z,2.77
2018-10-07T14:16:53.074Z,1.67
2018-10-07T14:17:57.192Z,3.25
2018-10-07T14:19:01.249Z,2.75
2018-10-07T14:20:05.468Z,1.98
2018-10-07T14:21:09.512Z,1.70
2018-10-07T14:22:13.737Z,2.40
2018-10-07T14:23:17.807Z,1.55
2018-10-07T14:24:21.835Z,3.83
2018-10-07T14:25:25.980Z,2.10
2018-10-07T14:26:30.171Z,2.00
2018-10-07T14:27:34.281Z,1.62
2018-10-07T14:28:38.272Z,4.55
2018-10-07T14:29:42.291Z,2.10
2018-10-07T14:30:46.383Z,5.47
2018-10-07T14:31:50.491Z,2.65